createdAt,value
2022-08-22T00:01:43.279Z,99760.41
2022-08-22T00:02:56.597Z,99783.12
2022-08-22T00:03:07.585Z,99786.63
2022-08-22T00:05:06.562Z,99765.48
2022-08-22T00:08:21.761Z,99763.61
2022-08-22T00:11:34.814Z,99763.41
2022-08-22T00:14:46.950Z,99757.73
2022-08-22T00:18:05.715Z,99759.23
2022-08-22T00:21:19.920Z,99758.15
2022-08-22T00:24:31.998Z,99759.73
2022-08-22T00:28:10.132Z,99759.59
2022-08-22T00:31:22.669Z,99761.05
2022-08-22T00:34:34.548Z,99764.44
2022-08-22T00:37:47.536Z,99762.17
2022-08-22T00:41:10.670Z,99764.73
2022-08-22T00:44:51.508Z,99759.79
2022-08-22T00:48:22.413Z,99758.98
2022-08-22T00:51:37.258Z,99764.15
2022-08-22T00:55:03.468Z,99766.75
2022-08-22T00:58:55.734Z,99769.20
2022-08-22T01:02:30.451Z,99769.08
2022-08-22T01:06:05.354Z,99762.27
2022-08-22T01:09:14.883Z,99760.71
2022-08-22T01:12:39.956Z,99762.48
2022-08-22T01:15:44.889Z,99766.52
2022-08-22T01:19:06.776Z,99766.48
2022-08-22T01:22:47.590Z,99768.42
2022-08-22T01:26:19.486Z,99771.23
2022-08-22T01:29:28.381Z,99774.52
2022-08-22T01:32:31.746Z,99774.09
2022-08-22T01:35:34.666Z,99772.73
2022-08-22T01:39:02.745Z,99777.55
2022-08-22T01:42:37.772Z,99777.73
2022-08-22T01:45:57.727Z,99778.71
2022-08-22T01:49:22.316Z,99781.83
2022-08-22T01:52:40.720Z,99783.62
2022-08-22T01:55:57.298Z,99780.30
2022-08-22T01:59:11.141Z,99781.63
2022-08-22T02:02:23.400Z,99780.42
2022-08-22T02:05:46.840Z,99781.30
2022-08-22T02:09:14.450Z,99781.28
2022-08-22T02:12:50.099Z,99782.83
2022-08-22T02:16:20.183Z,99789.95
2022-08-22T02:19:34.617Z,99789.42
2022-08-22T02:22:44.635Z,99789.00
2022-08-22T02:26:00.003Z,99793.02
2022-08-22T02:29:42.600Z,99793.25
2022-08-22T02:33:09.084Z,99794.86
2022-08-22T02:36:48.747Z,99791.50
2022-08-22T02:40:09.417Z,99791.71
2022-08-22T02:43:27.271Z,99786.41
2022-08-22T02:46:44.789Z,99789.07
2022-08-22T02:50:00.548Z,99787.00
2022-08-22T02:53:18.974Z,99789.16
2022-08-22T02:56:34.181Z,99789.20
2022-08-22T03:00:31.090Z,99788.13
2022-08-22T03:03:40.446Z,99789.38
2022-08-22T03:06:47.622Z,99785.91
2022-08-22T03:10:02.292Z,99787.41
2022-08-22T03:13:11.563Z,99789.95
2022-08-22T03:16:25.486Z,99791.85
2022-08-22T03:19:45.647Z,99794.77
2022-08-22T03:23:00.189Z,99790.71
2022-08-22T03:26:12.260Z,99793.73
2022-08-22T03:29:27.925Z,99794.70
2022-08-22T03:32:55.765Z,99796.55
2022-08-22T03:36:19.820Z,99803.39
2022-08-22T03:39:55.846Z,99800.85
2022-08-22T03:43:21.839Z,99801.02
2022-08-22T03:46:53.369Z,99803.11
2022-08-22T03:50:22.961Z,99806.14
2022-08-22T03:53:28.271Z,99808.70
2022-08-22T03:56:44.969Z,99813.61
2022-08-22T04:00:13.509Z,99813.06
2022-08-22T04:03:17.377Z,99815.93
2022-08-22T04:06:56.565Z,99814.82
2022-08-22T04:10:15.618Z,99816.44
2022-08-22T04:13:57.571Z,99818.61
2022-08-22T04:17:37.285Z,99821.67
2022-08-22T04:21:09.156Z,99825.50
2022-08-22T04:24:39.700Z,99824.45
2022-08-22T04:28:06.317Z,99825.87
2022-08-22T04:31:12.994Z,99828.12
2022-08-22T04:34:29.928Z,99832.20
2022-08-22T04:37:48.428Z,99832.65
2022-08-22T04:41:12.120Z,99832.61
2022-08-22T04:44:25.233Z,99834.52
2022-08-22T04:47:32.339Z,99836.02
2022-08-22T04:50:43.167Z,99836.67
2022-08-22T04:54:03.254Z,99839.58
2022-08-22T04:57:35.188Z,99839.34
2022-08-22T05:01:01.034Z,99835.33
2022-08-22T05:04:12.042Z,99835.11
2022-08-22T05:07:39.059Z,99837.56
2022-08-22T05:10:46.647Z,99842.96
2022-08-22T05:13:56.462Z,99846.23
2022-08-22T05:17:00.673Z,99846.60
2022-08-22T05:20:10.321Z,99847.61
2022-08-22T05:23:20.234Z,99848.75
2022-08-22T05:26:23.800Z,99852.27
2022-08-22T05:29:30.147Z,99848.73
2022-08-22T05:32:50.555Z,99849.55
2022-08-22T05:36:01.886Z,99856.48
2022-08-22T05:39:21.428Z,99860.02
2022-08-22T05:42:37.691Z,99860.33
2022-08-22T05:45:46.447Z,99866.15
2022-08-22T05:49:00.088Z,99863.48
2022-08-22T05:52:18.786Z,99868.86
2022-08-22T05:55:37.951Z,99863.65
2022-08-22T05:58:43.640Z,99864.45
2022-08-22T06:01:53.739Z,99864.64
2022-08-22T06:05:05.752Z,99865.56
2022-08-22T06:08:25.806Z,99866.48
2022-08-22T06:12:30.386Z,99870.63
2022-08-22T06:15:49.732Z,99874.52
2022-08-22T06:18:54.824Z,99878.50
2022-08-22T06:21:59.428Z,99881.41
2022-08-22T06:25:22.298Z,99880.73
2022-08-22T06:28:38.572Z,99879.29
2022-08-22T06:32:04.291Z,99881.52
2022-08-22T06:35:15.660Z,99887.23
2022-08-22T06:38:21.715Z,99887.02
2022-08-22T06:41:29.682Z,99886.89
2022-08-22T06:44:37.638Z,99888.47
2022-08-22T06:47:49.352Z,99891.11
2022-08-22T06:50:59.077Z,99894.87
2022-08-22T06:54:05.755Z,99899.75
2022-08-22T06:57:25.922Z,99898.42
2022-08-22T07:00:29.751Z,99902.10
2022-08-22T07:03:41.525Z,99903.30
2022-08-22T07:06:50.612Z,99903.02
2022-08-22T07:09:56.580Z,99902.98
2022-08-22T07:13:00.064Z,99901.21
2022-08-22T07:16:07.845Z,99898.69
2022-08-22T07:19:25.345Z,99897.69
2022-08-22T07:22:33.178Z,99904.23
2022-08-22T07:25:50.322Z,99903.18
2022-08-22T07:29:01.992Z,99904.43
2022-08-22T07:32:30.453Z,99909.63
2022-08-22T07:35:53.622Z,99914.54
2022-08-22T07:39:30.375Z,99911.31
2022-08-22T07:42:47.655Z,99911.29
2022-08-22T07:45:56.575Z,99913.64
2022-08-22T07:49:14.746Z,99915.79
2022-08-22T07:52:18.862Z,99916.44
2022-08-22T07:55:24.858Z,99918.81
2022-08-22T07:58:31.749Z,99914.71
2022-08-22T08:01:35.858Z,99913.61
2022-08-22T08:04:40.999Z,99910.30
2022-08-22T08:07:46.439Z,99911.27
2022-08-22T08:10:52.293Z,99913.77
2022-08-22T08:14:02.119Z,99913.45
2022-08-22T08:17:13.732Z,99907.84
2022-08-22T08:20:20.082Z,99909.55
2022-08-22T08:23:25.614Z,99907.78
2022-08-22T08:26:35.033Z,99910.98
2022-08-22T08:29:39.331Z,99914.02
2022-08-22T08:32:46.877Z,99905.46
2022-08-22T08:36:13.826Z,99906.23
2022-08-22T08:39:19.768Z,99900.48
2022-08-22T08:43:11.655Z,99893.41
2022-08-22T08:46:40.108Z,99897.70
2022-08-22T08:49:52.395Z,99897.02
2022-08-22T08:53:14.604Z,99898.33
2022-08-22T08:56:30.270Z,99896.70
2022-08-22T08:59:47.667Z,99896.02
2022-08-22T09:02:56.676Z,99897.84
2022-08-22T09:06:07.426Z,99896.64
2022-08-22T09:09:39.971Z,99892.35
2022-08-22T09:12:56.448Z,99891.41
2022-08-22T09:16:30.443Z,99889.65
2022-08-22T09:19:52.505Z,99885.94
2022-08-22T09:23:30.408Z,99894.69
2022-08-22T09:26:53.744Z,99895.30
2022-08-22T09:30:27.755Z,99891.95
2022-08-22T09:33:53.208Z,99891.20
2022-08-22T09:37:04.983Z,99891.67
2022-08-22T09:40:17.495Z,99892.97
2022-08-22T09:43:44.134Z,99892.82
2022-08-22T09:46:49.513Z,99894.05
2022-08-22T09:50:02.342Z,99890.61
2022-08-22T09:53:09.414Z,99888.16
2022-08-22T09:56:19.204Z,99887.31
2022-08-22T09:59:58.490Z,99887.48
2022-08-22T10:03:19.893Z,99888.84
2022-08-22T10:06:31.162Z,99891.55
2022-08-22T10:09:55.722Z,99892.56
2022-08-22T10:13:10.412Z,99891.67
2022-08-22T10:16:19.951Z,99889.14
2022-08-22T10:19:23.157Z,99894.05
2022-08-22T10:22:39.639Z,99894.73
2022-08-22T10:26:22.907Z,99895.64
2022-08-22T10:29:57.838Z,99895.67
2022-08-22T10:33:13.696Z,99895.21
2022-08-22T10:36:26.276Z,99896.70
2022-08-22T10:39:49.258Z,99897.36
2022-08-22T10:43:14.085Z,99894.96
2022-08-22T10:46:43.313Z,99897.05
2022-08-22T10:49:54.103Z,99894.27
2022-08-22T10:53:29.623Z,99895.17
2022-08-22T10:56:43.944Z,99894.51
2022-08-22T11:00:01.153Z,99897.68
2022-08-22T11:03:23.456Z,99901.05
2022-08-22T11:06:37.662Z,99900.39
2022-08-22T11:10:04.013Z,99901.39
2022-08-22T11:13:29.061Z,99901.64
2022-08-22T11:16:58.828Z,99904.05
2022-08-22T11:20:25.757Z,99900.60
2022-08-22T11:24:34.625Z,99900.34
2022-08-22T11:28:01.047Z,99900.20
2022-08-22T11:31:22.795Z,99895.11
2022-08-22T11:34:56.105Z,99897.55
2022-08-22T11:38:11.250Z,99899.09
2022-08-22T11:41:25.850Z,99904.33
2022-08-22T11:44:50.067Z,99903.92
2022-08-22T11:48:07.117Z,99901.77
2022-08-22T11:51:39.277Z,99897.64
2022-08-22T11:55:20.126Z,99897.38
2022-08-22T11:58:36.390Z,99895.19
2022-08-22T12:01:57.122Z,99892.45
2022-08-22T12:05:13.750Z,99893.74
2022-08-22T12:08:29.424Z,99893.30
2022-08-22T12:11:41.176Z,99895.98
2022-08-22T12:14:54.804Z,99899.58
2022-08-22T12:18:35.654Z,99893.54
2022-08-22T12:22:16.705Z,99892.91
2022-08-22T12:26:01.354Z,99892.48
2022-08-22T12:29:33.554Z,99892.01
2022-08-22T12:32:37.545Z,99891.65
2022-08-22T12:36:17.966Z,99885.66
2022-08-22T12:39:27.644Z,99887.01
2022-08-22T12:42:47.447Z,99881.67
2022-08-22T12:46:02.804Z,99880.14
2022-08-22T12:49:31.870Z,99875.70
2022-08-22T12:52:50.034Z,99874.59
2022-08-22T12:56:12.583Z,99870.64
2022-08-22T12:59:22.644Z,99863.79
2022-08-22T13:02:34.063Z,99864.27
2022-08-22T13:05:45.268Z,99867.05
2022-08-22T13:09:01.544Z,99861.55
2022-08-22T13:12:27.784Z,99868.52
2022-08-22T13:15:54.970Z,99869.33
2022-08-22T13:19:07.395Z,99871.95
2022-08-22T13:22:17.952Z,99872.44
2022-08-22T13:25:26.165Z,99865.79
2022-08-22T13:28:30.500Z,99860.10
2022-08-22T13:31:39.049Z,99860.95
2022-08-22T13:34:52.507Z,99868.80
2022-08-22T13:38:06.231Z,99864.69
2022-08-22T13:41:10.332Z,99859.79
2022-08-22T13:44:36.320Z,99855.67
2022-08-22T13:47:51.597Z,99856.21
2022-08-22T13:51:18.706Z,99853.27
2022-08-22T13:54:45.973Z,99858.86
2022-08-22T13:57:53.808Z,99856.39
2022-08-22T14:01:05.136Z,99858.72
2022-08-22T14:04:36.460Z,99855.97
2022-08-22T14:07:58.541Z,99855.59
2022-08-22T14:11:12.780Z,99857.38
2022-08-22T14:14:32.073Z,99857.01
2022-08-22T14:17:42.689Z,99857.27
2022-08-22T14:20:48.604Z,99851.99
2022-08-22T14:23:57.060Z,99855.92
2022-08-22T14:27:40.529Z,99857.89
2022-08-22T14:31:13.791Z,99859.81
2022-08-22T14:34:17.616Z,99864.34
2022-08-22T14:37:34.280Z,99867.90
2022-08-22T14:40:43.283Z,99868.71
2022-08-22T14:43:59.361Z,99871.84
2022-08-22T14:47:15.852Z,99872.16
2022-08-22T14:51:04.387Z,99874.84
2022-08-22T14:58:53.663Z,99876.65
2022-08-22T15:02:03.792Z,99874.95
2022-08-22T15:05:21.261Z,99872.48
2022-08-22T15:08:29.485Z,99869.86
2022-08-22T15:11:34.516Z,99866.85
2022-08-22T15:14:37.971Z,99868.45
2022-08-22T15:17:44.665Z,99873.40
2022-08-22T15:21:00.402Z,99875.73
2022-08-22T15:24:10.063Z,99871.08
2022-08-22T15:27:21.000Z,99870.77
2022-08-22T15:30:44.384Z,99871.55
2022-08-22T15:33:49.491Z,99866.20
2022-08-22T15:37:18.927Z,99865.79
2022-08-22T15:40:40.377Z,99862.11
2022-08-22T15:43:50.137Z,99860.70
2022-08-22T15:46:53.329Z,99858.66
2022-08-22T15:50:11.494Z,99859.95
2022-08-22T15:53:27.256Z,99853.27
2022-08-22T15:56:39.595Z,99855.30
2022-08-22T15:59:58.123Z,99859.42
2022-08-22T16:03:24.614Z,99854.46
2022-08-22T16:06:47.378Z,99854.77
2022-08-22T16:09:53.939Z,99859.23
2022-08-22T16:13:27.477Z,99859.49
2022-08-22T16:16:45.797Z,99856.16
2022-08-22T16:19:49.893Z,99860.98
2022-08-22T16:22:56.834Z,99862.73
2022-08-22T16:26:00.769Z,99870.27
2022-08-22T16:29:07.605Z,99872.23
2022-08-22T16:32:12.251Z,99873.27
2022-08-22T16:35:54.183Z,99869.66
2022-08-22T16:38:57.797Z,99872.29
2022-08-22T16:42:12.932Z,99870.16
2022-08-22T16:45:21.182Z,99871.89
2022-08-22T16:48:39.729Z,99871.57
2022-08-22T16:52:20.620Z,99872.23
2022-08-22T16:55:29.812Z,99868.61
2022-08-22T16:59:13.904Z,99872.52
2022-08-22T17:02:37.477Z,99872.14
2022-08-22T17:05:58.676Z,99873.16
2022-08-22T17:09:20.180Z,99875.46
2022-08-22T17:12:47.461Z,99878.42
2022-08-22T17:16:17.196Z,99876.21
2022-08-22T17:19:39.035Z,99880.45
2022-08-22T17:23:08.929Z,99882.86
2022-08-22T17:26:47.504Z,99890.20
2022-08-22T17:30:09.717Z,99894.58
2022-08-22T17:33:21.156Z,99892.73
2022-08-22T17:36:41.804Z,99891.15
2022-08-22T17:40:16.210Z,99890.58
2022-08-22T17:43:44.636Z,99890.33
2022-08-22T17:47:04.248Z,99880.95
2022-08-22T17:50:16.324Z,99878.62
2022-08-22T17:53:37.517Z,99876.07
2022-08-22T17:56:50.145Z,99879.10
2022-08-22T18:00:17.030Z,99885.52
2022-08-22T18:03:35.852Z,99891.27
2022-08-22T18:06:55.428Z,99886.13
2022-08-22T18:10:03.302Z,99889.79
2022-08-22T18:13:15.173Z,99890.21
2022-08-22T18:16:29.386Z,99892.36
2022-08-22T18:19:41.687Z,99893.23
2022-08-22T18:23:35.528Z,99887.21
2022-08-22T18:26:42.067Z,99891.84
2022-08-22T18:29:56.297Z,99886.59
2022-08-22T18:33:06.440Z,99892.75
2022-08-22T18:36:22.817Z,99891.37
2022-08-22T18:39:39.558Z,99894.73
2022-08-22T18:43:13.541Z,99895.20
2022-08-22T18:46:34.587Z,99903.81
2022-08-22T18:49:43.548Z,99896.64
2022-08-22T18:52:46.745Z,99890.06
2022-08-22T18:56:08.038Z,99887.33
2022-08-22T18:59:46.950Z,99890.15
2022-08-22T19:02:56.027Z,99892.14
2022-08-22T19:06:24.696Z,99883.23
2022-08-22T19:10:05.841Z,99885.75
2022-08-22T19:13:16.577Z,99883.73
2022-08-22T19:16:44.546Z,99884.27
2022-08-22T19:20:18.595Z,99886.54
2022-08-22T19:23:36.836Z,99888.92
2022-08-22T19:26:43.622Z,99889.20
2022-08-22T19:29:50.156Z,99885.77
2022-08-22T19:33:10.890Z,99879.95
2022-08-22T19:36:32.861Z,99884.17
2022-08-22T19:39:43.247Z,99894.48
2022-08-22T19:42:50.204Z,99893.12
2022-08-22T19:45:56.212Z,99888.11
2022-08-22T19:48:59.452Z,99891.38
2022-08-22T19:52:21.466Z,99884.61
2022-08-22T19:55:51.356Z,99886.40
2022-08-22T19:59:32.602Z,99879.98
2022-08-22T20:02:52.038Z,99886.52
2022-08-22T20:06:40.795Z,99881.88
2022-08-22T20:10:02.461Z,99880.73
2022-08-22T20:13:19.036Z,99882.46
2022-08-22T20:16:43.297Z,99880.25
2022-08-22T20:20:19.005Z,99877.83
2022-08-22T20:23:31.006Z,99875.67
2022-08-22T20:26:47.351Z,99875.98
2022-08-22T20:30:11.044Z,99873.73
2022-08-22T20:33:26.325Z,99877.75
2022-08-22T20:36:30.639Z,99873.43
2022-08-22T20:39:50.051Z,99872.42
2022-08-22T20:43:10.881Z,99867.58
2022-08-22T20:46:39.147Z,99869.79
2022-08-22T20:50:39.857Z,99867.45
2022-08-22T20:53:50.326Z,99860.96
2022-08-22T20:57:19.023Z,99852.02
2022-08-22T21:00:31.878Z,99856.36
2022-08-22T21:04:03.836Z,99854.31
2022-08-22T21:07:06.834Z,99860.00
2022-08-22T21:10:38.491Z,99855.79
2022-08-22T21:13:45.371Z,99853.77
2022-08-22T21:16:49.209Z,99849.00
2022-08-22T21:19:58.096Z,99845.95
2022-08-22T21:23:09.249Z,99850.48
2022-08-22T21:26:29.144Z,99844.60
2022-08-22T21:29:35.459Z,99841.30
2022-08-22T21:32:53.613Z,99839.58
2022-08-22T21:36:00.364Z,99833.25
2022-08-22T21:39:12.213Z,99836.83
2022-08-22T21:42:25.167Z,99839.11
2022-08-22T21:45:40.938Z,99837.92
2022-08-22T21:48:58.593Z,99840.60
2022-08-22T21:52:01.865Z,99834.66
2022-08-22T21:55:30.189Z,99837.05
2022-08-22T21:58:37.411Z,99834.60
2022-08-22T22:01:42.675Z,99837.33
2022-08-22T22:04:51.923Z,99834.19
2022-08-22T22:07:55.251Z,99833.82
2022-08-22T22:11:06.231Z,99837.67
2022-08-22T22:14:11.686Z,99838.02
2022-08-22T22:17:14.660Z,99845.35
2022-08-22T22:20:20.566Z,99837.77
2022-08-22T22:23:24.593Z,99838.87
2022-08-22T22:26:29.002Z,99838.28
2022-08-22T22:29:33.710Z,99830.34
2022-08-22T22:32:36.582Z,99830.63
2022-08-22T22:35:40.986Z,99824.70
2022-08-22T22:38:44.439Z,99823.59
2022-08-22T22:41:47.642Z,99824.85
2022-08-22T22:44:50.826Z,99823.06
2022-08-22T22:47:53.813Z,99821.77
2022-08-22T22:50:56.975Z,99824.42
2022-08-22T22:53:59.857Z,99823.35
2022-08-22T22:57:04.044Z,99820.25
2022-08-22T23:00:08.241Z,99819.40
2022-08-22T23:03:11.110Z,99815.55
2022-08-22T23:06:16.848Z,99813.63
2022-08-22T23:09:19.826Z,99811.82
2022-08-22T23:12:27.655Z,99814.20
2022-08-22T23:15:30.678Z,99810.48
2022-08-22T23:18:33.704Z,99811.89
2022-08-22T23:21:36.832Z,99818.59
2022-08-22T23:24:40.522Z,99823.66
2022-08-22T23:27:44.409Z,99817.70
2022-08-22T23:30:51.800Z,99817.85
2022-08-22T23:33:55.533Z,99815.02
2022-08-22T23:37:00.196Z,99813.81
2022-08-22T23:40:08.823Z,99814.67
2022-08-22T23:43:12.683Z,99815.37
2022-08-22T23:46:17.258Z,99807.45
2022-08-22T23:49:20.873Z,99800.45
2022-08-22T23:52:24.050Z,99801.13
2022-08-22T23:55:27.027Z,99803.40
2022-08-22T23:58:29.999Z,99807.66
